createdAt,value
2023-05-14T00:01:00.207Z,8.42
2023-05-14T00:03:26.768Z,8.43
2023-05-14T00:05:53.274Z,8.43
2023-05-14T00:08:19.747Z,8.44
2023-05-14T00:10:46.262Z,8.45
2023-05-14T00:13:12.714Z,8.45
2023-05-14T00:15:39.268Z,8.47
2023-05-14T00:18:06.973Z,8.49
2023-05-14T00:20:33.537Z,8.50
2023-05-14T00:23:00.010Z,8.46
2023-05-14T00:25:26.477Z,8.45
2023-05-14T00:27:52.929Z,8.44
2023-05-14T00:30:19.418Z,8.43
2023-05-14T00:32:45.989Z,8.40
2023-05-14T00:35:12.493Z,8.33
2023-05-14T00:37:39.115Z,8.29
2023-05-14T00:40:07.148Z,8.24
2023-05-14T00:42:33.676Z,8.19
2023-05-14T00:45:00.402Z,8.13
2023-05-14T00:47:27.042Z,8.09
2023-05-14T00:49:53.538Z,8.03
2023-05-14T00:52:20.248Z,7.95
2023-05-14T00:54:46.950Z,7.87
2023-05-14T00:57:13.651Z,7.82
2023-05-14T00:59:41.782Z,7.77
2023-05-14T01:02:08.337Z,7.70
2023-05-14T01:04:35.299Z,7.66
2023-05-14T01:07:24.379Z,7.60
2023-05-14T01:09:59.759Z,7.54
2023-05-14T01:12:34.666Z,7.47
2023-05-14T01:15:12.068Z,7.44
2023-05-14T01:17:43.667Z,7.37
2023-05-14T01:20:10.467Z,7.31
2023-05-14T01:22:37.406Z,7.25
2023-05-14T01:25:05.561Z,7.25
2023-05-14T01:27:37.885Z,7.28
2023-05-14T01:30:23.550Z,7.31
2023-05-14T01:32:52.008Z,7.34
2023-05-14T01:35:19.470Z,7.39
2023-05-14T01:37:45.951Z,7.42
2023-05-14T01:40:12.462Z,7.46
2023-05-14T01:42:38.912Z,7.48
2023-05-14T01:45:05.806Z,7.52
2023-05-14T01:47:32.347Z,7.55
2023-05-14T01:49:58.844Z,7.59
2023-05-14T01:52:25.287Z,7.60
2023-05-14T01:54:51.767Z,7.63
2023-05-14T01:57:18.225Z,7.67
2023-05-14T01:59:44.690Z,7.67
2023-05-14T02:02:11.175Z,7.70
2023-05-14T02:04:37.629Z,7.73
2023-05-14T02:07:04.174Z,7.71
2023-05-14T02:09:30.775Z,7.73
2023-05-14T02:11:57.264Z,7.76
2023-05-14T02:14:23.743Z,7.80
2023-05-14T02:16:51.351Z,7.80
2023-05-14T02:19:17.872Z,7.83
2023-05-14T02:21:44.716Z,7.84
2023-05-14T02:24:11.200Z,7.85
2023-05-14T02:26:37.642Z,7.85
2023-05-14T02:29:04.163Z,7.85
2023-05-14T02:31:30.985Z,7.88
2023-05-14T02:33:57.484Z,7.91
2023-05-14T02:36:23.962Z,7.89
2023-05-14T02:38:50.610Z,7.93
2023-05-14T02:41:17.067Z,7.98
2023-05-14T02:43:43.543Z,7.99
2023-05-14T02:46:10.039Z,8.01
2023-05-14T02:48:36.490Z,8.05
2023-05-14T02:51:03.003Z,8.02
2023-05-14T02:53:29.490Z,8.03
2023-05-14T02:55:56.226Z,8.07
2023-05-14T02:58:25.303Z,8.08
2023-05-14T03:00:53.331Z,8.08
2023-05-14T03:03:20.421Z,8.09
2023-05-14T03:05:47.326Z,8.12
2023-05-14T03:08:13.801Z,8.08
2023-05-14T03:10:40.338Z,8.04
2023-05-14T03:13:06.839Z,8.05
2023-05-14T03:15:33.299Z,8.10
2023-05-14T03:17:59.827Z,8.12
2023-05-14T03:20:26.623Z,8.15
2023-05-14T03:22:53.156Z,8.17
2023-05-14T03:25:19.679Z,8.16
2023-05-14T03:27:46.221Z,8.18
2023-05-14T03:30:12.924Z,8.19
2023-05-14T03:32:39.456Z,8.20
2023-05-14T03:35:06.476Z,8.17
2023-05-14T03:37:32.926Z,8.16
2023-05-14T03:39:59.377Z,8.21
2023-05-14T03:42:25.832Z,8.23
2023-05-14T03:44:52.322Z,8.25
2023-05-14T03:47:18.785Z,8.27
2023-05-14T03:49:45.254Z,8.27
2023-05-14T03:52:11.708Z,8.28
2023-05-14T03:54:38.609Z,8.30
2023-05-14T03:57:05.151Z,8.32
2023-05-14T03:59:31.725Z,8.32
2023-05-14T04:01:58.184Z,8.33
2023-05-14T04:04:24.691Z,8.34
2023-05-14T04:06:51.218Z,8.33
2023-05-14T04:09:17.661Z,8.36
2023-05-14T04:11:44.117Z,8.37
2023-05-14T04:14:10.608Z,8.40
2023-05-14T04:16:37.111Z,8.40
2023-05-14T04:19:05.014Z,8.42
2023-05-14T04:21:31.679Z,8.44
2023-05-14T04:23:58.163Z,8.42
2023-05-14T04:26:24.684Z,8.40
2023-05-14T04:28:51.206Z,8.42
2023-05-14T04:31:17.654Z,8.41
2023-05-14T04:33:44.131Z,8.37
2023-05-14T04:36:10.626Z,8.39
2023-05-14T04:38:37.089Z,8.40
2023-05-14T04:41:03.635Z,8.39
2023-05-14T04:43:30.258Z,8.43
2023-05-14T04:45:56.878Z,8.44
2023-05-14T04:48:23.432Z,8.47
2023-05-14T04:50:49.921Z,8.50
2023-05-14T04:53:16.372Z,8.52
2023-05-14T04:55:42.831Z,8.53
2023-05-14T04:58:09.289Z,8.55
2023-05-14T05:00:35.811Z,8.55
2023-05-14T05:03:02.323Z,8.53
2023-05-14T05:05:28.881Z,8.51
2023-05-14T05:07:55.407Z,8.51
2023-05-14T05:10:22.108Z,8.48
2023-05-14T05:12:48.713Z,8.49
2023-05-14T05:15:15.416Z,8.48
2023-05-14T05:17:42.055Z,8.45
2023-05-14T05:20:10.108Z,8.42
2023-05-14T05:22:36.703Z,8.41
2023-05-14T05:25:06.221Z,8.41
2023-05-14T05:27:33.402Z,8.45
2023-05-14T05:30:01.572Z,8.45
2023-05-14T05:32:28.075Z,8.50
2023-05-14T05:34:54.521Z,8.53
2023-05-14T05:37:21.043Z,8.58
2023-05-14T05:39:48.295Z,8.65
2023-05-14T05:42:14.822Z,8.72
2023-05-14T05:44:41.318Z,8.78
2023-05-14T05:47:07.771Z,8.84
2023-05-14T05:49:36.865Z,8.96
2023-05-14T05:52:04.131Z,9.04
2023-05-14T05:54:32.181Z,9.11
2023-05-14T05:56:59.221Z,9.18
2023-05-14T05:59:25.707Z,9.27
2023-05-14T06:01:52.195Z,9.35
2023-05-14T06:04:18.686Z,9.48
2023-05-14T06:06:45.428Z,9.65
2023-05-14T06:09:13.134Z,9.77
2023-05-14T06:11:39.578Z,9.95
2023-05-14T06:14:06.043Z,10.07
2023-05-14T06:16:32.560Z,10.24
2023-05-14T06:18:59.068Z,10.35
2023-05-14T06:21:25.575Z,10.42
2023-05-14T06:23:52.028Z,10.46
2023-05-14T06:26:18.529Z,10.56
2023-05-14T06:28:45.045Z,10.64
2023-05-14T06:31:11.527Z,10.70
2023-05-14T06:33:38.059Z,10.74
2023-05-14T06:36:05.554Z,10.71
2023-05-14T06:38:32.035Z,10.77
2023-05-14T06:40:58.518Z,10.82
2023-05-14T06:43:25.150Z,10.86
2023-05-14T06:45:51.834Z,10.87
2023-05-14T06:48:21.502Z,10.93
2023-05-14T06:50:48.433Z,11.07
2023-05-14T06:53:15.256Z,11.17
2023-05-14T06:55:41.813Z,11.34
2023-05-14T06:58:08.503Z,11.53
2023-05-14T07:00:35.010Z,11.71
2023-05-14T07:03:01.579Z,11.78
2023-05-14T07:05:28.120Z,11.91
2023-05-14T07:07:54.609Z,12.00
2023-05-14T07:10:21.241Z,12.07
2023-05-14T07:12:47.890Z,12.17
2023-05-14T07:15:14.386Z,12.23
2023-05-14T07:17:41.100Z,12.29
2023-05-14T07:20:08.128Z,12.44
2023-05-14T07:22:34.583Z,12.56
2023-05-14T07:25:01.310Z,12.70
2023-05-14T07:27:27.845Z,12.77
2023-05-14T07:29:54.311Z,12.83
2023-05-14T07:32:20.845Z,12.91
2023-05-14T07:34:47.373Z,13.10
2023-05-14T07:37:13.861Z,13.29
2023-05-14T07:39:41.650Z,13.40
2023-05-14T07:42:08.167Z,13.41
2023-05-14T07:44:34.622Z,13.39
2023-05-14T07:47:01.173Z,13.42
2023-05-14T07:49:27.751Z,13.41
2023-05-14T07:51:54.213Z,13.31
2023-05-14T07:54:20.802Z,13.30
2023-05-14T07:56:47.266Z,13.25
2023-05-14T07:59:13.732Z,13.06
2023-05-14T08:01:40.596Z,12.83
2023-05-14T08:04:07.161Z,12.57
2023-05-14T08:06:34.055Z,12.34
2023-05-14T08:09:00.684Z,12.14
2023-05-14T08:11:27.166Z,12.02
2023-05-14T08:13:53.643Z,11.93
2023-05-14T08:16:20.173Z,11.90
2023-05-14T08:18:47.084Z,11.81
2023-05-14T08:21:13.597Z,11.67
2023-05-14T08:23:40.053Z,11.51
2023-05-14T08:26:06.636Z,11.37
2023-05-14T08:28:33.107Z,11.29
2023-05-14T08:30:59.659Z,11.20
2023-05-14T08:33:26.166Z,11.11
2023-05-14T08:35:53.035Z,11.10
2023-05-14T08:38:19.530Z,11.26
2023-05-14T08:40:50.077Z,11.44
2023-05-14T08:43:17.752Z,11.69
2023-05-14T08:45:44.304Z,11.94
2023-05-14T08:48:11.030Z,12.11
2023-05-14T08:50:37.814Z,12.25
2023-05-14T08:53:04.299Z,12.38
2023-05-14T08:55:30.813Z,12.55
2023-05-14T08:57:57.326Z,12.76
2023-05-14T09:00:24.855Z,12.92
2023-05-14T09:02:51.813Z,12.98
2023-05-14T09:05:18.379Z,13.00
2023-05-14T09:07:45.052Z,12.96
2023-05-14T09:10:11.582Z,12.88
2023-05-14T09:12:38.053Z,12.97
2023-05-14T09:15:06.481Z,13.11
2023-05-14T09:17:33.020Z,13.25
2023-05-14T09:19:59.509Z,13.48
2023-05-14T09:22:26.111Z,13.71
2023-05-14T09:25:06.180Z,14.03
2023-05-14T09:27:34.352Z,14.17
2023-05-14T09:30:07.402Z,14.43
2023-05-14T09:32:41.014Z,14.78
2023-05-14T09:35:18.153Z,15.04
2023-05-14T09:37:46.239Z,15.16
2023-05-14T09:40:13.294Z,15.48
2023-05-14T09:42:40.179Z,15.81
2023-05-14T09:45:09.823Z,16.23
2023-05-14T09:47:37.142Z,16.30
2023-05-14T09:50:04.352Z,16.31
2023-05-14T09:52:31.031Z,16.31
2023-05-14T09:54:57.551Z,16.33
2023-05-14T09:57:24.228Z,16.40
2023-05-14T09:59:50.700Z,16.64
2023-05-14T10:02:37.871Z,16.95
2023-05-14T10:05:05.938Z,17.13
2023-05-14T10:07:39.144Z,17.30
2023-05-14T10:10:07.610Z,17.53
2023-05-14T10:12:34.635Z,17.89
2023-05-14T10:15:06.964Z,18.26
2023-05-14T10:17:34.730Z,18.54
2023-05-14T10:20:02.642Z,18.85
2023-05-14T10:22:31.910Z,19.25
2023-05-14T10:24:58.358Z,19.59
2023-05-14T10:27:24.895Z,19.70
2023-05-14T10:29:54.959Z,19.70
2023-05-14T10:32:25.725Z,19.73
2023-05-14T10:34:52.987Z,19.45
2023-05-14T10:37:26.338Z,18.92
2023-05-14T10:40:00.183Z,18.32
2023-05-14T10:42:28.226Z,17.75
2023-05-14T10:45:02.695Z,17.22
2023-05-14T10:47:29.303Z,16.62
2023-05-14T10:49:56.766Z,16.01
2023-05-14T10:52:23.335Z,15.65
2023-05-14T10:54:55.880Z,15.40
2023-05-14T10:57:23.691Z,15.24
2023-05-14T10:59:54.862Z,15.06
2023-05-14T11:02:26.145Z,14.98
2023-05-14T11:05:05.909Z,14.83
2023-05-14T11:07:38.095Z,14.85
2023-05-14T11:10:06.057Z,14.91
2023-05-14T11:12:33.510Z,15.11
2023-05-14T11:15:00.855Z,15.44
2023-05-14T11:17:28.089Z,15.75
2023-05-14T11:19:55.501Z,15.94
2023-05-14T11:22:22.475Z,16.01
2023-05-14T11:24:49.063Z,16.03
2023-05-14T11:27:15.998Z,15.96
2023-05-14T11:29:48.310Z,15.95
2023-05-14T11:32:15.483Z,16.01
2023-05-14T11:34:42.401Z,16.18
2023-05-14T11:37:09.193Z,16.34
2023-05-14T11:39:37.399Z,16.29
2023-05-14T11:42:14.720Z,16.22
2023-05-14T11:44:41.570Z,16.10
2023-05-14T11:47:08.098Z,16.17
2023-05-14T11:49:37.332Z,16.37
2023-05-14T11:52:07.583Z,16.60
2023-05-14T11:54:34.269Z,16.79
2023-05-14T11:57:10.765Z,17.01
2023-05-14T11:59:37.767Z,17.16
2023-05-14T12:02:07.122Z,17.41
2023-05-14T12:04:33.727Z,17.55
2023-05-14T12:07:00.479Z,17.55
2023-05-14T12:09:26.951Z,17.64
2023-05-14T12:11:53.453Z,17.70
2023-05-14T12:14:23.473Z,17.82
2023-05-14T12:16:50.489Z,17.86
2023-05-14T12:19:18.439Z,18.01
2023-05-14T12:21:46.202Z,18.04
2023-05-14T12:24:13.604Z,18.06
2023-05-14T12:26:41.539Z,18.09
2023-05-14T12:29:08.073Z,18.00
2023-05-14T12:31:34.659Z,18.03
2023-05-14T12:34:01.185Z,18.23
2023-05-14T12:36:27.647Z,18.49
2023-05-14T12:38:59.662Z,18.90
2023-05-14T12:41:26.154Z,19.41
2023-05-14T12:43:52.638Z,19.70
2023-05-14T12:46:19.175Z,20.01
2023-05-14T12:48:46.276Z,20.28
2023-05-14T12:51:12.979Z,20.51
2023-05-14T12:53:39.446Z,20.58
2023-05-14T12:56:06.228Z,20.61
2023-05-14T12:58:32.747Z,20.66
2023-05-14T13:00:59.593Z,20.64
2023-05-14T13:03:26.379Z,20.48
2023-05-14T13:05:53.271Z,20.57
2023-05-14T13:08:21.949Z,20.69
2023-05-14T13:10:48.480Z,20.73
2023-05-14T13:13:15.622Z,20.77
2023-05-14T13:15:42.126Z,20.82
2023-05-14T13:18:08.761Z,20.71
2023-05-14T13:20:35.382Z,20.66
2023-05-14T13:23:01.857Z,20.52
2023-05-14T13:25:28.348Z,20.36
2023-05-14T13:27:55.181Z,20.16
2023-05-14T13:30:21.685Z,19.93
2023-05-14T13:32:48.244Z,19.86
2023-05-14T13:35:14.850Z,19.93
2023-05-14T13:37:43.320Z,20.13
2023-05-14T13:40:10.297Z,20.36
2023-05-14T13:42:37.103Z,20.70
2023-05-14T13:45:04.074Z,21.15
2023-05-14T13:47:31.209Z,21.58
2023-05-14T13:49:57.750Z,22.25
2023-05-14T13:52:24.247Z,22.60
2023-05-14T13:54:50.900Z,22.57
2023-05-14T13:57:17.362Z,22.62
2023-05-14T13:59:43.825Z,22.57
2023-05-14T14:02:10.286Z,23.26
2023-05-14T14:04:36.764Z,25.57
2023-05-14T14:07:03.384Z,30.83
2023-05-14T14:09:34.870Z,35.49
2023-05-14T14:12:03.489Z,37.79
2023-05-14T14:14:30.053Z,39.45
2023-05-14T14:16:56.526Z,42.16
2023-05-14T14:19:23.730Z,44.38
2023-05-14T14:24:17.641Z,45.50
2023-05-14T14:26:44.149Z,41.03
2023-05-14T14:29:10.590Z,36.76
2023-05-14T14:31:37.204Z,33.61
2023-05-14T14:34:03.869Z,30.56
2023-05-14T14:36:31.611Z,27.91
2023-05-14T14:38:58.167Z,25.68
2023-05-14T14:41:24.646Z,23.87
2023-05-14T14:43:51.146Z,22.55
2023-05-14T14:46:17.638Z,21.42
2023-05-14T14:48:44.118Z,20.46
2023-05-14T14:51:10.618Z,19.54
2023-05-14T14:53:37.279Z,18.88
2023-05-14T14:56:04.403Z,18.35
2023-05-14T14:58:31.222Z,18.25
2023-05-14T15:00:58.038Z,18.50
2023-05-14T15:03:25.252Z,18.36
2023-05-14T15:05:53.304Z,18.24
2023-05-14T15:08:20.832Z,18.04
2023-05-14T15:10:47.354Z,17.62
2023-05-14T15:13:13.854Z,17.22
2023-05-14T15:15:40.312Z,16.86
2023-05-14T15:18:06.810Z,16.61
2023-05-14T15:20:33.342Z,16.40
2023-05-14T15:22:59.811Z,16.06
2023-05-14T15:25:26.770Z,15.80
2023-05-14T15:27:53.496Z,15.65
2023-05-14T15:30:20.014Z,15.58
2023-05-14T15:32:46.746Z,15.56
2023-05-14T15:35:13.327Z,15.53
2023-05-14T15:37:41.222Z,15.63
2023-05-14T15:40:08.468Z,15.78
2023-05-14T15:42:39.255Z,15.78
2023-05-14T15:45:06.019Z,15.68
2023-05-14T15:47:32.601Z,15.50
2023-05-14T15:49:59.909Z,15.10
2023-05-14T15:52:26.513Z,14.92
2023-05-14T15:54:54.195Z,14.85
2023-05-14T15:57:20.725Z,14.65
2023-05-14T15:59:47.331Z,14.51
2023-05-14T16:02:14.341Z,14.46
2023-05-14T16:04:40.815Z,14.38
2023-05-14T16:07:09.793Z,14.48
2023-05-14T16:09:36.588Z,14.47
2023-05-14T16:12:03.344Z,14.46
2023-05-14T16:14:29.801Z,14.67
2023-05-14T16:16:56.338Z,15.74
2023-05-14T16:19:22.966Z,16.72
2023-05-14T16:21:49.437Z,17.17
2023-05-14T16:24:17.929Z,16.84
2023-05-14T16:26:44.446Z,16.29
2023-05-14T16:29:10.961Z,15.67
2023-05-14T16:31:37.735Z,15.11
2023-05-14T16:34:04.231Z,14.68
2023-05-14T16:36:31.209Z,14.27
2023-05-14T16:39:07.447Z,14.00
2023-05-14T16:41:35.306Z,13.72
2023-05-14T16:44:01.850Z,13.47
2023-05-14T16:46:29.356Z,13.39
2023-05-14T16:48:56.199Z,13.29
2023-05-14T16:51:22.755Z,13.18
2023-05-14T16:53:49.261Z,13.04
2023-05-14T16:56:15.733Z,12.67
2023-05-14T16:58:42.188Z,12.37
2023-05-14T17:01:09.828Z,12.05
2023-05-14T17:03:36.813Z,11.78
2023-05-14T17:06:04.575Z,11.61
2023-05-14T17:08:33.471Z,11.44
2023-05-14T17:11:00.143Z,11.37
2023-05-14T17:13:26.641Z,11.29
2023-05-14T17:15:53.180Z,11.10
2023-05-14T17:18:19.748Z,10.95
2023-05-14T17:20:46.337Z,10.79
2023-05-14T17:23:12.983Z,10.72
2023-05-14T17:25:39.453Z,10.62
2023-05-14T17:28:06.097Z,10.50
2023-05-14T17:30:32.580Z,10.47
2023-05-14T17:32:59.160Z,10.42
2023-05-14T17:35:25.964Z,10.39
2023-05-14T17:37:52.564Z,10.36
2023-05-14T17:40:19.019Z,10.30
2023-05-14T17:42:46.303Z,10.24
2023-05-14T17:45:13.431Z,10.22
2023-05-14T17:47:40.250Z,10.23
2023-05-14T17:50:07.291Z,10.25
2023-05-14T17:52:33.777Z,10.31
2023-05-14T17:55:00.326Z,10.34
2023-05-14T17:57:27.011Z,10.38
2023-05-14T17:59:53.504Z,10.37
2023-05-14T18:02:19.988Z,10.29
2023-05-14T18:04:46.665Z,10.23
2023-05-14T18:07:13.361Z,10.13
2023-05-14T18:09:39.834Z,10.01
2023-05-14T18:12:06.871Z,9.84
2023-05-14T18:14:33.363Z,9.70
2023-05-14T18:16:59.897Z,9.54
2023-05-14T18:19:26.403Z,9.44
2023-05-14T18:21:55.332Z,9.33
2023-05-14T18:24:22.211Z,9.28
2023-05-14T18:26:48.679Z,9.26
2023-05-14T18:29:15.232Z,9.26
2023-05-14T18:31:41.692Z,9.25
2023-05-14T18:34:08.224Z,9.29
2023-05-14T18:36:34.701Z,9.30
2023-05-14T18:39:01.141Z,9.28
2023-05-14T18:41:27.626Z,9.31
2023-05-14T18:43:54.099Z,9.29
2023-05-14T18:46:20.652Z,9.23
2023-05-14T18:48:47.179Z,9.21
2023-05-14T18:51:13.807Z,9.21
2023-05-14T18:53:40.261Z,9.21
2023-05-14T18:56:06.768Z,9.18
2023-05-14T18:58:33.230Z,9.13
2023-05-14T19:00:59.718Z,9.08
2023-05-14T19:03:26.574Z,9.10
2023-05-14T19:05:53.634Z,9.13
2023-05-14T19:08:20.106Z,9.13
2023-05-14T19:10:46.664Z,9.11
2023-05-14T19:13:13.159Z,9.09
2023-05-14T19:15:39.702Z,9.05
2023-05-14T19:18:06.434Z,8.97
2023-05-14T19:20:32.922Z,8.99
2023-05-14T19:22:59.418Z,9.02
2023-05-14T19:25:26.145Z,9.00
2023-05-14T19:27:53.631Z,8.98
2023-05-14T19:30:20.640Z,8.93
2023-05-14T19:32:47.120Z,8.87
2023-05-14T19:35:13.651Z,8.83
2023-05-14T19:37:40.129Z,8.81
2023-05-14T19:40:07.222Z,8.83
2023-05-14T19:42:33.707Z,8.83
2023-05-14T19:45:00.234Z,8.80
2023-05-14T19:47:28.364Z,8.81
2023-05-14T19:49:54.954Z,8.82
2023-05-14T19:52:21.404Z,8.80
2023-05-14T19:54:47.845Z,8.79
2023-05-14T19:57:14.305Z,8.78
2023-05-14T19:59:41.352Z,8.80
2023-05-14T20:02:09.054Z,8.80
2023-05-14T20:04:35.597Z,8.79
2023-05-14T20:07:02.075Z,8.80
2023-05-14T20:09:28.566Z,8.80
2023-05-14T20:11:55.042Z,8.76
2023-05-14T20:14:21.489Z,8.72
2023-05-14T20:16:48.912Z,8.69
2023-05-14T20:19:16.301Z,8.69
2023-05-14T20:21:42.920Z,8.71
2023-05-14T20:24:09.433Z,8.72
2023-05-14T20:26:35.956Z,8.75
2023-05-14T20:29:02.431Z,8.78
2023-05-14T20:31:29.114Z,8.81
2023-05-14T20:33:55.644Z,8.84
2023-05-14T20:36:22.254Z,8.85
2023-05-14T20:38:48.773Z,8.85
2023-05-14T20:41:15.311Z,8.86
2023-05-14T20:43:41.827Z,8.82
2023-05-14T20:46:09.009Z,8.79
2023-05-14T20:48:35.568Z,8.85
2023-05-14T20:51:04.725Z,8.88
2023-05-14T20:53:31.542Z,8.89
2023-05-14T20:55:58.957Z,8.88
2023-05-14T20:58:25.568Z,8.86
2023-05-14T21:00:52.048Z,8.81
2023-05-14T21:03:18.611Z,8.72
2023-05-14T21:05:45.614Z,8.71
2023-05-14T21:08:12.059Z,8.66
2023-05-14T21:10:38.536Z,8.63
2023-05-14T21:13:05.091Z,8.51
2023-05-14T21:15:32.533Z,8.44
2023-05-14T21:17:59.033Z,8.42
2023-05-14T21:20:25.501Z,8.32
2023-05-14T21:22:51.988Z,8.26
2023-05-14T21:25:18.509Z,8.20
2023-05-14T21:27:44.963Z,8.15
2023-05-14T21:30:12.026Z,8.16
2023-05-14T21:32:38.598Z,8.16
2023-05-14T21:35:05.464Z,8.15
2023-05-14T21:37:31.948Z,8.19
2023-05-14T21:39:58.438Z,8.11
2023-05-14T21:42:24.930Z,7.99
2023-05-14T21:44:51.420Z,7.91
2023-05-14T21:47:17.939Z,7.81
2023-05-14T21:49:44.429Z,7.75
2023-05-14T21:52:11.236Z,7.71
2023-05-14T21:54:37.721Z,7.61
2023-05-14T21:57:04.355Z,7.50
2023-05-14T21:59:30.856Z,7.37
2023-05-14T22:02:07.029Z,7.31
2023-05-14T22:04:34.279Z,7.24
2023-05-14T22:07:00.814Z,7.19
2023-05-14T22:09:27.333Z,7.10
2023-05-14T22:11:53.792Z,7.04
2023-05-14T22:14:20.310Z,6.98
2023-05-14T22:16:47.143Z,6.92
2023-05-14T22:19:15.274Z,6.85
2023-05-14T22:21:41.775Z,6.78
2023-05-14T22:24:08.328Z,6.74
2023-05-14T22:26:34.858Z,6.69
2023-05-14T22:29:01.306Z,6.63
2023-05-14T22:31:27.804Z,6.59
2023-05-14T22:33:54.342Z,6.54
2023-05-14T22:36:20.934Z,6.51
2023-05-14T22:38:47.425Z,6.46
2023-05-14T22:41:13.932Z,6.42
2023-05-14T22:43:40.392Z,6.45
2023-05-14T22:46:06.911Z,6.48
2023-05-14T22:48:33.548Z,6.50
2023-05-14T22:51:00.001Z,6.53
2023-05-14T22:53:26.507Z,6.55
2023-05-14T22:55:52.962Z,6.56
2023-05-14T22:58:19.430Z,6.57
2023-05-14T23:00:45.932Z,6.59
2023-05-14T23:03:12.401Z,6.60
2023-05-14T23:05:38.846Z,6.60
2023-05-14T23:08:05.631Z,6.63
2023-05-14T23:10:32.154Z,6.66
2023-05-14T23:12:58.656Z,6.72
2023-05-14T23:15:25.400Z,6.77
2023-05-14T23:17:52.131Z,6.82
2023-05-14T23:20:18.805Z,6.86
2023-05-14T23:22:45.304Z,6.90
2023-05-14T23:25:11.807Z,6.92
2023-05-14T23:27:38.286Z,6.92
2023-05-14T23:30:05.176Z,6.93
2023-05-14T23:32:31.749Z,6.96
2023-05-14T23:34:58.240Z,6.97
2023-05-14T23:37:24.724Z,6.99
2023-05-14T23:39:51.334Z,7.03
2023-05-14T23:42:17.832Z,7.03
2023-05-14T23:44:44.364Z,7.05
2023-05-14T23:47:10.831Z,7.07
2023-05-14T23:49:37.848Z,7.10
2023-05-14T23:52:04.568Z,7.11
2023-05-14T23:54:31.307Z,7.13
2023-05-14T23:56:57.760Z,7.14
2023-05-14T23:59:24.222Z,7.14
